createdAt,value
2022-11-18T05:04:24.042Z,8.10
2022-11-18T05:06:52.653Z,8.10
2022-11-18T05:09:21.647Z,8.20
2022-11-18T05:12:08.220Z,8.10
2022-11-18T05:14:36.489Z,8.10
2022-11-18T05:17:07.210Z,8.10
2022-11-18T05:19:39.323Z,8.10
2022-11-18T05:22:07.425Z,8.00
2022-11-18T05:24:35.559Z,8.00
2022-11-18T05:27:03.629Z,8.00
2022-11-18T05:29:31.758Z,8.00
2022-11-18T05:32:00.262Z,8.10
2022-11-18T05:34:28.375Z,8.10
2022-11-18T05:36:58.165Z,8.10
2022-11-18T05:39:26.258Z,8.10
2022-11-18T05:42:11.472Z,8.10
2022-11-18T05:44:39.597Z,8.20
2022-11-18T05:47:08.108Z,8.20
2022-11-18T05:49:36.222Z,8.20
2022-11-18T05:52:06.591Z,8.30
2022-11-18T05:54:34.723Z,8.30
2022-11-18T05:57:03.003Z,8.20
2022-11-18T05:59:31.426Z,8.20
2022-11-18T06:02:02.222Z,8.20
2022-11-18T06:04:33.122Z,8.30
2022-11-18T06:07:06.396Z,8.20
2022-11-18T06:09:37.576Z,8.30
2022-11-18T06:12:07.329Z,8.20
2022-11-18T06:14:37.772Z,8.20
2022-11-18T06:17:09.783Z,8.30
2022-11-18T06:19:37.922Z,8.30
2022-11-18T06:22:08.617Z,8.30
2022-11-18T06:24:36.865Z,8.20
2022-11-18T06:27:05.449Z,8.30
2022-11-18T06:29:33.577Z,8.20
2022-11-18T06:32:02.055Z,8.20
2022-11-18T06:34:30.121Z,8.30
2022-11-18T06:36:58.209Z,8.30
2022-11-18T06:39:28.092Z,8.30
2022-11-18T06:41:56.538Z,8.30
2022-11-18T06:44:23.574Z,8.30
2022-11-18T06:46:57.571Z,8.20
2022-11-18T06:49:26.307Z,8.10
2022-11-18T06:51:54.507Z,8.10
2022-11-18T06:54:22.882Z,8.10
2022-11-18T06:56:52.466Z,8.10
2022-11-18T06:59:23.969Z,8.10
2022-11-18T07:01:53.581Z,8.20
2022-11-18T07:04:22.034Z,8.10
2022-11-18T07:06:50.208Z,8.10
2022-11-18T07:09:18.762Z,8.10
2022-11-18T07:11:48.073Z,8.10
2022-11-18T07:14:17.823Z,8.20
2022-11-18T07:16:45.905Z,8.10
2022-11-18T07:19:15.097Z,8.10
2022-11-18T07:21:43.821Z,8.20
2022-11-18T07:24:14.725Z,8.10
2022-11-18T07:26:43.362Z,8.10
2022-11-18T07:29:12.179Z,8.20
2022-11-18T07:31:41.925Z,8.20
2022-11-18T07:34:10.007Z,8.30
2022-11-18T07:36:38.090Z,8.30
2022-11-18T07:39:07.382Z,8.30
2022-11-18T07:41:36.405Z,8.30
2022-11-18T07:44:06.425Z,8.30
2022-11-18T07:46:35.700Z,8.40
2022-11-18T07:49:10.210Z,8.40
2022-11-18T07:51:40.232Z,8.40
2022-11-18T07:54:10.082Z,8.40
2022-11-18T07:56:38.265Z,8.50
2022-11-18T07:59:06.712Z,8.60
2022-11-18T08:01:34.894Z,8.60
2022-11-18T08:04:08.315Z,8.60
2022-11-18T08:06:37.058Z,8.60
2022-11-18T08:09:06.180Z,8.70
2022-11-18T08:11:34.569Z,8.70
2022-11-18T08:14:03.275Z,8.70
2022-11-18T08:16:31.689Z,8.70
2022-11-18T08:19:00.887Z,8.80
2022-11-18T08:21:30.492Z,8.80
2022-11-18T08:24:00.507Z,8.90
2022-11-18T08:26:29.577Z,8.90
2022-11-18T08:28:58.527Z,8.90
2022-11-18T08:31:28.473Z,9.00
2022-11-18T08:33:57.379Z,9.00
2022-11-18T08:36:27.423Z,9.00
2022-11-18T08:38:58.665Z,9.00
2022-11-18T08:41:30.873Z,9.00
2022-11-18T08:43:58.996Z,9.10
2022-11-18T08:46:27.307Z,9.10
2022-11-18T08:48:55.358Z,9.20
2022-11-18T08:51:23.468Z,9.20
2022-11-18T08:53:51.703Z,9.20
2022-11-18T08:56:23.118Z,9.30
2022-11-18T08:58:51.686Z,9.30
2022-11-18T09:01:19.898Z,9.40
2022-11-18T09:03:48.652Z,9.40
2022-11-18T09:06:19.217Z,9.40
2022-11-18T09:08:47.752Z,9.40
2022-11-18T09:11:17.953Z,9.50
2022-11-18T09:16:37.102Z,9.50
2022-11-18T09:19:31.697Z,9.50
2022-11-18T09:21:54.153Z,9.60
2022-11-18T09:24:22.537Z,9.60
2022-11-18T09:26:51.062Z,9.60
2022-11-18T09:29:25.283Z,9.70
2022-11-18T09:31:53.438Z,9.70
2022-11-18T09:34:21.500Z,9.70
2022-11-18T09:36:49.683Z,9.70
2022-11-18T09:39:17.978Z,9.70
2022-11-18T09:41:48.266Z,9.80
2022-11-18T09:44:37.070Z,9.80
2022-11-18T09:47:11.738Z,9.80
2022-11-18T09:49:41.318Z,9.80
2022-11-18T09:52:18.087Z,9.80
2022-11-18T09:54:46.194Z,9.80
2022-11-18T09:57:17.054Z,9.90
2022-11-18T09:59:46.717Z,9.90
2022-11-18T10:02:43.696Z,9.90
2022-11-18T10:05:18.573Z,9.90
2022-11-18T10:07:58.504Z,10.00
2022-11-18T10:10:35.157Z,10.00
2022-11-18T10:13:07.366Z,10.00
2022-11-18T10:15:39.489Z,10.10
2022-11-18T10:18:44.773Z,10.10
2022-11-18T10:21:18.584Z,10.20
2022-11-18T10:23:53.406Z,10.20
2022-11-18T10:26:34.724Z,10.20
2022-11-18T10:29:03.229Z,10.20
2022-11-18T10:31:33.027Z,10.20
2022-11-18T10:34:01.844Z,10.20
2022-11-18T10:36:33.361Z,10.20
2022-11-18T10:39:13.192Z,10.20
2022-11-18T10:41:44.830Z,10.20
2022-11-18T10:44:36.840Z,10.20
2022-11-18T10:47:24.981Z,10.20
2022-11-18T10:49:53.305Z,10.30
2022-11-18T10:52:21.937Z,10.30
2022-11-18T10:55:08.718Z,10.40
2022-11-18T10:57:43.331Z,10.40
2022-11-18T11:00:43.950Z,10.50
2022-11-18T11:03:34.495Z,10.60
2022-11-18T11:06:31.454Z,10.70
2022-11-18T11:09:01.802Z,10.70
2022-11-18T11:11:32.425Z,10.80
2022-11-18T11:14:08.322Z,10.80
2022-11-18T11:16:43.253Z,10.90
2022-11-18T11:19:14.145Z,10.80
2022-11-18T11:21:42.313Z,10.90
2022-11-18T11:24:13.631Z,10.90
2022-11-18T11:30:02.597Z,10.90
2022-11-18T11:32:39.547Z,10.90
2022-11-18T11:35:15.656Z,11.00
2022-11-18T11:37:52.339Z,11.00
2022-11-18T11:40:29.717Z,11.10
2022-11-18T11:43:12.987Z,11.30
2022-11-18T11:45:48.218Z,11.30
2022-11-18T11:48:26.839Z,11.40
2022-11-18T11:51:04.303Z,11.50
2022-11-18T11:53:50.364Z,11.40
2022-11-18T11:56:23.344Z,11.60
2022-11-18T11:59:10.394Z,11.60
2022-11-18T12:01:47.603Z,11.70
2022-11-18T12:04:31.395Z,11.50
2022-11-18T12:07:01.306Z,11.60
2022-11-18T12:09:41.377Z,11.50
2022-11-18T12:12:30.951Z,11.70
2022-11-18T12:15:03.622Z,11.80
2022-11-18T12:17:35.319Z,11.80
2022-11-18T12:20:43.649Z,11.80
2022-11-18T12:23:21.278Z,11.80
2022-11-18T12:25:54.865Z,11.90
2022-11-18T12:28:34.618Z,11.90
2022-11-18T12:31:34.489Z,12.00
2022-11-18T12:34:18.015Z,12.20
2022-11-18T12:36:46.182Z,12.20
2022-11-18T12:39:50.416Z,12.10
2022-11-18T12:42:56.104Z,12.20
2022-11-18T12:45:50.198Z,12.30
2022-11-18T12:48:41.646Z,12.30
2022-11-18T12:51:46.276Z,12.30
2022-11-18T12:54:26.131Z,12.50
2022-11-18T12:56:56.445Z,12.60
2022-11-18T12:59:35.763Z,12.50
2022-11-18T13:02:06.203Z,12.70
2022-11-18T13:04:34.379Z,12.80
2022-11-18T13:07:03.516Z,12.90
2022-11-18T13:09:34.722Z,12.90
2022-11-18T13:12:08.673Z,12.90
2022-11-18T13:14:58.404Z,12.90
2022-11-18T13:17:48.853Z,12.90
2022-11-18T13:20:27.344Z,12.70
2022-11-18T13:23:14.653Z,12.50
2022-11-18T13:25:45.087Z,12.60
2022-11-18T13:28:22.928Z,12.60
2022-11-18T13:30:53.755Z,12.50
2022-11-18T13:33:21.907Z,12.30
2022-11-18T13:35:50.267Z,12.50
2022-11-18T13:38:28.024Z,12.60
2022-11-18T13:41:08.168Z,12.60
2022-11-18T13:43:37.876Z,12.50
2022-11-18T13:46:08.300Z,12.40
2022-11-18T13:48:37.751Z,12.40
2022-11-18T13:51:06.038Z,12.20
2022-11-18T13:53:37.004Z,12.20
2022-11-18T13:56:06.795Z,12.20
2022-11-18T13:59:10.253Z,12.20
2022-11-18T14:01:30.073Z,12.20
2022-11-18T14:03:59.911Z,12.20
2022-11-18T14:06:29.718Z,12.20
2022-11-18T14:09:09.436Z,12.30
2022-11-18T14:11:39.646Z,12.20
2022-11-18T14:14:10.278Z,12.20
2022-11-18T14:16:40.018Z,12.10
2022-11-18T14:19:08.350Z,12.10
2022-11-18T14:21:38.328Z,12.00
2022-11-18T14:24:06.941Z,12.00
2022-11-18T14:26:36.766Z,12.00
2022-11-18T14:29:21.271Z,12.00
2022-11-18T14:32:16.505Z,12.00
2022-11-18T14:34:44.576Z,11.90
2022-11-18T14:37:14.379Z,11.90
2022-11-18T14:39:42.421Z,11.90
2022-11-18T14:42:13.764Z,11.80
2022-11-18T14:44:43.180Z,11.70
2022-11-18T14:47:24.073Z,11.60
2022-11-18T14:49:52.504Z,11.60
2022-11-18T14:52:21.026Z,11.60
2022-11-18T14:54:48.990Z,11.50
2022-11-18T14:57:18.983Z,11.30
2022-11-18T14:59:48.681Z,11.40
2022-11-18T15:02:18.717Z,11.30
2022-11-18T15:04:48.571Z,11.30
2022-11-18T15:07:23.485Z,11.30
2022-11-18T15:09:52.430Z,11.30
2022-11-18T15:12:20.543Z,11.20
2022-11-18T15:14:50.287Z,11.00
2022-11-18T15:17:20.535Z,11.10
2022-11-18T15:19:48.677Z,11.10
2022-11-18T15:22:21.861Z,11.00
2022-11-18T15:24:50.247Z,10.90
2022-11-18T15:27:18.631Z,10.80
2022-11-18T15:29:46.632Z,10.70
2022-11-18T15:32:16.019Z,10.60
2022-11-18T15:34:44.135Z,10.50
2022-11-18T15:37:14.014Z,10.50
2022-11-18T15:39:44.150Z,10.50
2022-11-18T15:42:12.507Z,10.30
2022-11-18T15:44:41.740Z,9.90
2022-11-18T15:47:09.791Z,9.70
2022-11-18T15:49:43.118Z,9.70
2022-11-18T15:52:12.046Z,9.80
2022-11-18T15:54:41.185Z,9.50
2022-11-18T15:57:09.346Z,9.30
2022-11-18T15:59:37.371Z,9.10
2022-11-18T16:02:13.568Z,9.00
2022-11-18T16:04:42.952Z,8.90
2022-11-18T16:07:11.460Z,8.80
2022-11-18T16:09:57.091Z,8.90
2022-11-18T16:12:42.910Z,9.10
2022-11-18T16:15:28.640Z,9.20
2022-11-18T16:17:58.333Z,9.20
2022-11-18T16:20:27.938Z,9.20
2022-11-18T16:22:57.477Z,9.30
2022-11-18T16:25:25.857Z,8.80
2022-11-18T16:27:53.947Z,8.40
2022-11-18T16:30:39.273Z,8.30
2022-11-18T16:33:07.497Z,8.30
2022-11-18T16:35:37.153Z,8.50
2022-11-18T16:38:06.133Z,8.60
2022-11-18T16:40:34.291Z,8.60
2022-11-18T16:43:02.364Z,8.40
2022-11-18T16:45:30.499Z,8.10
2022-11-18T16:47:58.551Z,7.90
2022-11-18T16:50:26.562Z,7.70
2022-11-18T16:52:55.991Z,7.70
2022-11-18T16:55:24.050Z,7.90
2022-11-18T16:57:52.163Z,7.90
2022-11-18T17:00:28.116Z,7.60
2022-11-18T17:03:09.102Z,7.50
2022-11-18T17:05:37.215Z,7.50
2022-11-18T17:08:08.049Z,7.50
2022-11-18T17:10:36.395Z,7.50
2022-11-18T17:13:04.994Z,7.40
2022-11-18T17:15:33.090Z,7.50
2022-11-18T17:18:01.136Z,7.60
2022-11-18T17:20:29.626Z,7.70
2022-11-18T17:22:57.683Z,7.90
2022-11-18T17:25:27.627Z,8.20
2022-11-18T17:27:55.812Z,8.10
2022-11-18T17:30:23.825Z,8.30
2022-11-18T17:32:51.923Z,8.30
2022-11-18T17:35:19.966Z,8.40
2022-11-18T17:37:48.166Z,8.60
2022-11-18T17:40:16.461Z,8.70
2022-11-18T17:42:46.268Z,8.40
2022-11-18T17:45:14.507Z,8.30
2022-11-18T17:47:44.673Z,8.50
2022-11-18T17:50:12.818Z,8.50
2022-11-18T17:52:40.998Z,8.50
2022-11-18T17:55:09.890Z,8.40
2022-11-18T17:57:37.993Z,8.40
2022-11-18T18:00:09.036Z,8.40
2022-11-18T18:02:38.578Z,8.30
2022-11-18T18:05:08.346Z,8.40
2022-11-18T18:07:41.863Z,8.40
2022-11-18T18:10:12.236Z,8.40
2022-11-18T18:12:57.503Z,8.20
2022-11-18T18:15:26.888Z,8.10
2022-11-18T18:17:55.093Z,8.30
2022-11-18T18:20:23.421Z,8.40
2022-11-18T18:22:51.547Z,8.30
2022-11-18T18:25:19.602Z,8.30
2022-11-18T18:27:47.622Z,8.10
2022-11-18T18:30:17.878Z,8.00
2022-11-18T18:32:52.202Z,8.00
2022-11-18T18:35:20.676Z,8.00
2022-11-18T18:37:49.083Z,7.90
2022-11-18T18:40:17.637Z,7.80
2022-11-18T18:42:45.996Z,7.80
2022-11-18T18:45:31.392Z,7.80
2022-11-18T18:48:05.425Z,7.70
2022-11-18T18:50:41.547Z,7.70
2022-11-18T18:53:16.118Z,7.80
2022-11-18T18:55:45.305Z,7.90
2022-11-18T18:58:20.209Z,7.90
2022-11-18T19:00:48.725Z,7.90
2022-11-18T19:03:18.146Z,7.80
2022-11-18T19:06:21.960Z,7.80
2022-11-18T19:08:34.332Z,7.80
2022-11-18T19:11:06.480Z,7.70
2022-11-18T19:13:33.511Z,7.60
2022-11-18T19:16:06.022Z,7.60
2022-11-18T19:18:37.282Z,7.60
2022-11-18T19:21:05.353Z,7.60
2022-11-18T19:23:33.394Z,7.70
2022-11-18T19:26:02.040Z,7.80
2022-11-18T19:28:30.389Z,7.70
2022-11-18T19:31:00.755Z,7.70
2022-11-18T19:33:28.818Z,7.80
2022-11-18T19:36:01.639Z,7.60
2022-11-18T19:38:30.006Z,7.50
2022-11-18T19:41:01.922Z,7.50
2022-11-18T19:43:30.061Z,7.40
2022-11-18T19:45:58.181Z,7.30
2022-11-18T19:48:26.765Z,7.40
2022-11-18T19:50:55.619Z,7.30
2022-11-18T19:53:34.888Z,7.20
2022-11-18T19:56:04.363Z,7.10
2022-11-18T19:58:33.680Z,7.10
2022-11-18T20:01:10.564Z,7.00
2022-11-18T20:03:39.014Z,7.00
2022-11-18T20:06:07.815Z,7.00
2022-11-18T20:08:37.945Z,6.80
2022-11-18T20:11:09.360Z,6.70
2022-11-18T20:13:38.160Z,6.70
2022-11-18T20:16:08.528Z,6.70
2022-11-18T20:18:37.249Z,6.70
2022-11-18T20:21:08.328Z,6.50
2022-11-18T20:23:41.928Z,6.50
2022-11-18T20:26:11.942Z,6.40
2022-11-18T20:28:41.635Z,6.40
2022-11-18T20:31:11.090Z,6.40
2022-11-18T20:33:40.711Z,6.30
2022-11-18T20:36:10.346Z,6.30
2022-11-18T20:38:39.968Z,6.30
2022-11-18T20:44:52.193Z,6.30
2022-11-18T20:47:20.523Z,6.30
2022-11-18T20:49:54.246Z,6.20
2022-11-18T20:52:22.698Z,6.50
2022-11-18T20:54:52.128Z,6.50
2022-11-18T20:57:20.505Z,6.30
2022-11-18T20:59:48.583Z,6.30
2022-11-18T21:02:16.651Z,6.20
2022-11-18T21:04:44.780Z,6.10
2022-11-18T21:07:12.896Z,6.00
2022-11-18T21:09:41.321Z,6.00
2022-11-18T21:12:10.940Z,5.90
2022-11-18T21:14:38.082Z,6.00
2022-11-18T21:17:06.483Z,6.20
2022-11-18T21:19:34.870Z,6.00
2022-11-18T21:22:01.907Z,5.90
2022-11-18T21:24:31.616Z,5.80
2022-11-18T21:27:01.249Z,5.70
2022-11-18T21:29:32.328Z,5.70
2022-11-18T21:32:01.724Z,5.80
2022-11-18T21:34:30.224Z,5.90
2022-11-18T21:36:58.330Z,5.80
2022-11-18T21:39:27.528Z,5.80
2022-11-18T21:41:57.056Z,5.60
2022-11-18T21:44:27.824Z,5.60
2022-11-18T21:46:58.177Z,5.60
2022-11-18T21:49:26.232Z,5.60
2022-11-18T21:51:54.901Z,5.50
2022-11-18T21:54:22.918Z,5.40
2022-11-18T21:56:51.240Z,5.60
2022-11-18T21:59:19.567Z,5.40
2022-11-18T22:01:48.071Z,5.50
2022-11-18T22:04:31.354Z,5.60
2022-11-18T22:06:59.463Z,5.40
2022-11-18T22:09:32.861Z,5.30
2022-11-18T22:12:04.405Z,5.30
2022-11-18T22:14:32.471Z,5.30
2022-11-18T22:17:00.810Z,5.40
2022-11-18T22:19:30.542Z,5.20
2022-11-18T22:21:58.590Z,5.10
2022-11-18T22:24:26.891Z,5.20
2022-11-18T22:26:54.890Z,5.10
2022-11-18T22:29:24.368Z,5.00
2022-11-18T22:31:52.397Z,5.00
2022-11-18T22:34:20.780Z,5.30
2022-11-18T22:36:50.288Z,5.20
2022-11-18T22:39:19.192Z,5.20
2022-11-18T22:42:04.893Z,5.20
2022-11-18T22:44:32.931Z,5.10
2022-11-18T22:47:01.267Z,5.00
